Latest Weather Observations for Cape Moreton

IDQ60901

Issued at 8:21 am EST Tuesday 22 January 2019 (issued every 10 minutes, with the page automatically refreshed every 10 minutes)

About weather observations | Map of Brisbane area stations | Latest observations for Brisbane area | Other Formats
Station Details ID: 040043 Name: CAPE MORETON LIGHTHOUSE Lat: -27.03 Lon: 153.47 Height: 99.9 m
Data from the previous 72 hours. | See also: Recent months at Cape Moreton
Date/Time
EST
Temp
°C
App
Temp
°C
Dew
Point
°C
Rel
Hum
%
Delta-T
°C
Wind Press
QNH
hPa
Press
MSL
hPa
Rain since
9am
mm
Dir  Spd
km/h
Gust
km/h
Spd
kts
Gust
kts
22/08:00am 27.6 28.7 22.3 73 3.6 E 20 24 11 13 1017.6 1017.1 0.0
22/07:30am 27.2 28.3 21.9 73 3.6 E 19 22 10 12 1017.5 1017.0 0.0
22/07:00am 26.8 28.0 22.2 76 3.1 E 19 22 10 12 1017.5 1017.0 0.0
22/06:30am 26.3 27.5 22.2 78 2.8 E 19 24 10 13 1017.1 1016.6 0.0
22/06:00am 25.1 26.1 22.2 84 1.9 E 20 24 11 13 1016.9 1016.4 0.0
22/05:30am 24.0 25.0 22.1 89 1.3 ESE 20 22 11 12 1016.6 1016.1 0.0
22/05:00am 23.9 24.8 21.6 87 1.5 E 19 24 10 13 1016.5 1016.0 0.0
22/04:30am 24.1 25.1 22.2 89 1.3 ESE 20 26 11 14 1016.3 1015.8 0.0
22/04:00am 24.0 24.8 21.7 87 1.5 E 20 24 11 13 1016.2 1015.7 0.0
22/03:30am 24.1 24.8 21.6 86 1.7 E 20 26 11 14 1016.2 1015.7 0.0
22/03:00am 24.0 24.8 21.3 85 1.8 E 19 24 10 13 1016.2 1015.7 0.0
22/02:30am 24.0 24.0 20.9 83 2.0 E 22 28 12 15 1016.5 1016.0 0.0
22/02:00am 24.1 24.4 20.8 82 2.2 E 20 26 11 14 1016.8 1016.3 0.0
22/01:30am 24.1 23.7 21.0 83 2.0 E 24 28 13 15 1016.9 1016.4 0.0
22/01:00am 24.1 23.6 20.8 82 2.2 E 24 28 13 15 1017.1 1016.6 0.0
22/12:30am 24.2 24.2 20.9 82 2.2 E 22 26 12 14 1017.4 1016.9 0.0
22/12:00am 24.3 24.4 21.2 83 2.0 E 22 26 12 14 1017.6 1017.1 0.0
 
Date/Time
EST
Temp
°C
App
Temp
°C
Dew
Point
°C
Rel
Hum
%
Delta-T
°C
Wind Press
QNH
hPa
Press
MSL
hPa
Rain since
9am
mm
Dir  Spd
km/h
Gust
km/h
Spd
kts
Gust
kts
21/11:30pm 24.3 24.7 21.0 82 2.2 E 20 26 11 14 1018.0 1017.5 0.0
21/11:00pm 24.3 24.2 20.8 81 2.3 ESE 22 26 12 14 1018.3 1017.8 0.0
21/10:30pm 24.4 24.4 20.9 81 2.3 ESE 22 28 12 15 1018.6 1018.1 0.0
21/10:00pm 24.6 24.1 21.5 83 2.1 ESE 26 30 14 16 1018.8 1018.3 0.0
21/09:30pm 24.4 24.6 21.3 83 2.1 ESE 22 26 12 14 1018.8 1018.3 0.0
21/09:00pm 24.5 24.4 21.4 83 2.1 ESE 24 32 13 17 1018.7 1018.2 0.0
21/08:30pm 24.5 23.9 21.2 82 2.2 ESE 26 30 14 16 1018.4 1017.9 0.0
21/08:00pm 24.5 24.1 21.0 81 2.3 ESE 24 30 13 16 1018.3 1017.8 0.0
21/07:30pm 24.7 23.6 21.0 80 2.4 ESE 28 33 15 18 1018.0 1017.5 0.0
21/07:00pm 24.8 23.7 21.1 80 2.4 ESE 28 33 15 18 1017.6 1017.1 0.0
21/06:30pm 24.9 23.8 21.0 79 2.6 ESE 28 32 15 17 1017.4 1016.9 0.0
21/06:00pm 25.3 23.8 21.0 77 2.8 ESE 30 33 16 18 1017.0 1016.5 0.0
21/05:30pm 26.0 25.9 21.4 76 3.1 ESE 24 28 13 15 1016.7 1016.2 0.0
21/05:00pm 26.3 26.5 21.3 74 3.3 ESE 22 26 12 14 1016.4 1015.9 0.0
21/04:30pm 26.3 25.8 20.8 71 3.6 ESE 24 26 13 14 1016.2 1015.7 0.0
21/04:00pm 26.4 26.2 21.2 73 3.5 ESE 24 28 13 15 1016.1 1015.6 0.0
21/03:30pm 26.6 26.3 21.1 72 3.7 ESE 24 26 13 14 1016.3 1015.8 0.0
21/03:00pm 27.2 27.1 21.5 71 3.8 ESE 24 26 13 14 1016.5 1016.0 0.0
21/02:30pm 27.4 27.6 21.4 70 4.0 ESE 22 26 12 14 1016.7 1016.2 0.0
21/02:00pm 27.8 27.6 21.3 67 4.3 ESE 24 26 13 14 1016.6 1016.1 0.0
21/01:30pm 27.1 26.9 21.2 70 3.9 ESE 24 28 13 15 1016.8 1016.3 0.0
21/01:00pm 27.1 27.4 22.3 75 3.2 SE 24 28 13 15 1017.0 1016.5 0.0
21/12:30pm 26.3 26.2 21.5 75 3.2 SE 24 30 13 16 1017.1 1016.6 0.0
21/12:00pm 27.5 27.2 21.8 71 3.8 SE 26 32 14 17 1017.4 1016.9 0.0
21/11:30am 28.6 28.7 22.6 70 4.1 SE 26 30 14 16 1017.6 1017.1 0.0
21/11:00am 28.6 28.6 21.6 66 4.7 SE 24 28 13 15 1017.5 1017.0 0.0
21/10:30am 28.5 28.4 21.5 66 4.7 SE 24 28 13 15 1017.7 1017.2 0.0
21/10:00am 28.6 29.5 21.9 67 4.5 SE 20 24 11 13 1017.7 1017.2 0.0
21/09:30am 28.5 28.9 21.8 67 4.5 SE 22 26 12 14 1017.9 1017.4 0.0
21/09:00am 27.8 27.5 21.1 67 4.5 SE 24 26 13 14 1017.7 1017.2 0.0
21/08:30am 27.5 27.8 21.5 70 4.0 ESE 22 24 12 13 1017.8 1017.3 0.0
21/08:00am 27.0 27.1 21.1 70 3.9 ESE 22 26 12 14 1017.7 1017.2 0.0
21/07:30am 26.8 27.4 21.3 72 3.7 ESE 20 24 11 13 1017.5 1017.0 0.0
21/07:00am 26.1 26.4 20.7 72 3.6 ESE 20 26 11 14 1017.4 1016.9 0.0
21/06:30am 25.7 25.3 20.9 75 3.2 SE 24 28 13 15 1017.3 1016.8 0.0
21/06:00am 24.9 25.0 21.2 80 2.4 ESE 22 26 12 14 1017.2 1016.7 0.0
21/05:30am 24.1 23.9 21.2 84 1.9 ESE 24 28 13 15 1017.1 1016.6 0.0
21/05:00am 23.6 24.0 20.9 85 1.8 ESE 20 24 11 13 1016.8 1016.3 0.0
21/04:30am 23.7 24.0 20.8 84 1.9 ESE 20 24 11 13 1016.7 1016.2 0.0
21/04:00am 23.9 24.3 21.0 84 1.9 ESE 20 24 11 13 1016.6 1016.1 0.0
21/03:30am 23.7 24.1 21.0 85 1.8 ESE 20 24 11 13 1016.3 1015.8 0.0
21/03:00am 23.6 24.6 21.1 86 1.6 ESE 17 20 9 11 1016.4 1015.9 0.0
21/02:30am 23.7 24.9 21.4 87 1.5 ESE 17 20 9 11 1016.4 1015.9 0.0
21/02:00am 23.7 24.9 21.4 87 1.5 ESE 17 20 9 11 1016.8 1016.3 0.0
21/01:30am 23.7 25.3 21.4 87 1.5 ESE 15 17 8 9 1017.1 1016.6 0.0
21/01:00am 23.8 25.7 21.3 86 1.6 ESE 13 17 7 9 1017.2 1016.7 0.0
21/12:30am 23.8 26.0 21.1 85 1.8 ESE 11 13 6 7 1017.4 1016.9 0.0
21/12:00am 24.1 25.9 21.2 84 1.9 E 13 15 7 8 1017.7 1017.2 0.0
 
Date/Time
EST
Temp
°C
App
Temp
°C
Dew
Point
°C
Rel
Hum
%
Delta-T
°C
Wind Press
QNH
hPa
Press
MSL
hPa
Rain since
9am
mm
Dir  Spd
km/h
Gust
km/h
Spd
kts
Gust
kts
20/11:30pm 24.3 25.3 21.0 82 2.2 E 17 20 9 11 1017.8 1017.3 0.0
20/11:00pm 24.3 25.0 21.2 83 2.0 ENE 19 20 10 11 1018.1 1017.6 0.0
20/10:30pm 24.2 25.2 21.1 83 2.0 E 17 22 9 12 1018.4 1017.9 0.0
20/10:00pm 24.3 25.0 21.2 83 2.0 E 19 20 10 11 1018.7 1018.2 0.0
20/09:30pm 24.4 24.8 20.9 81 2.3 E 20 24 11 13 1018.7 1018.2 0.0
20/09:00pm 24.5 24.1 21.0 81 2.3 E 24 26 13 14 1018.4 1017.9 0.0
20/08:30pm 24.5 24.1 21.0 81 2.3 E 24 28 13 15 1018.3 1017.8 0.0
20/08:00pm 24.6 24.3 21.1 81 2.3 E 24 28 13 15 1018.0 1017.5 0.0
20/07:30pm 24.7 23.9 20.8 79 2.6 E 26 32 14 17 1017.7 1017.2 0.0
20/07:00pm 24.8 24.2 21.3 81 2.3 E 26 30 14 16 1017.4 1016.9 0.0
20/06:30pm 24.9 24.3 20.4 76 2.9 E 24 28 13 15 1017.2 1016.7 0.0
20/06:00pm 25.3 25.4 20.3 74 3.3 E 20 24 11 13 1017.0 1016.5 0.0
20/05:30pm 25.7 26.0 20.7 74 3.3 ESE 20 22 11 12 1016.8 1016.3 0.0
20/05:00pm 26.0 25.8 20.6 72 3.6 E 22 26 12 14 1016.5 1016.0 0.0
20/04:30pm 26.4 26.7 20.7 71 3.8 E 20 24 11 13 1016.6 1016.1 0.0
20/04:00pm 27.1 27.5 20.9 69 4.1 E 20 24 11 13 1016.7 1016.2 0.0
20/03:30pm 27.4 27.8 20.7 67 4.4 E 19 24 10 13 1016.9 1016.4 0.0
20/03:00pm 28.2 29.1 21.5 67 4.5 ESE 19 22 10 12 1017.2 1016.7 0.0
20/02:30pm 27.8 27.5 20.4 64 4.9 ESE 22 24 12 13 1017.4 1016.9 0.0
20/02:00pm 27.9 27.8 19.9 61 5.2 ESE 20 24 11 13 1017.5 1017.0 0.0
20/01:30pm 28.4 28.9 21.2 65 4.8 SE 20 22 11 12 1017.7 1017.2 0.0
20/01:00pm 28.6 29.3 21.6 66 4.7 SE 20 24 11 13 1018.0 1017.5 0.0
20/12:30pm 29.1 30.0 21.6 64 5.0 SE 19 24 10 13 1018.3 1017.8 0.0
20/12:00pm 29.0 29.7 21.2 62 5.2 SE 19 20 10 11 1018.7 1018.2 0.0
20/11:30am 29.5 30.6 22.0 64 5.1 SE 19 20 10 11 1018.8 1018.3 0.0
20/11:00am 28.6 29.3 21.6 66 4.7 ESE 20 26 11 14 1019.1 1018.6 0.0
20/10:30am 28.1 28.3 20.6 63 5.0 ESE 20 24 11 13 1019.3 1018.8 0.0
20/10:00am 28.6 29.8 22.1 68 4.4 SE 19 24 10 13 1019.4 1018.9 0.0
20/09:30am 28.2 28.5 21.5 67 4.5 ESE 22 26 12 14 1019.4 1018.9 0.0
20/09:00am 27.9 28.9 22.2 71 3.8 SSE 20 24 11 13 1019.5 1019.0 0.0
20/08:30am 26.8 28.2 22.8 79 2.7 SSE 20 24 11 13 1019.5 1019.0 0.0
20/08:00am 24.6 25.6 21.1 81 2.3 SSE 17 22 9 12 1019.2 1018.7 0.0
20/07:30am 25.5 27.4 21.4 78 2.7 SSE 13 15 7 8 1018.8 1018.3 0.0
20/07:00am 25.6 27.3 21.7 79 2.6 SSE 15 17 8 9 1018.6 1018.1 0.0
20/06:30am 23.7 26.4 22.1 91 1.1 S 11 15 6 8 1018.0 1017.5 0.0
20/06:00am 22.8 25.1 21.4 92 0.9 S 11 13 6 7 1017.6 1017.1 0.0
20/05:30am 22.5 25.3 20.8 90 1.1 SSE 7 11 4 6 1017.2 1016.7 0.0
20/05:00am 22.9 25.9 20.8 88 1.4 ESE 6 13 3 7 1016.8 1016.3 0.0
20/04:30am 23.3 24.9 20.8 86 1.6 ENE 13 15 7 8 1016.3 1015.8 0.0
20/04:00am 23.4 25.2 21.1 87 1.5 ENE 13 17 7 9 1016.1 1015.6 0.0
20/03:30am 23.4 26.4 20.9 86 1.6 ENE 6 7 3 4 1016.0 1015.5 0.0
20/03:00am 23.5 26.9 21.0 86 1.6 SE 4 13 2 7 1016.0 1015.5 0.0
20/02:30am 23.6 26.1 21.1 86 1.6 NE 9 11 5 6 1015.9 1015.4 0.0
20/02:00am 23.6 25.8 21.1 86 1.6 NNE 11 15 6 8 1015.8 1015.3 0.0
20/01:30am 23.5 25.2 21.0 86 1.6 NNE 13 17 7 9 1016.0 1015.5 0.0
20/01:00am 23.8 24.3 20.9 84 1.9 NNE 19 22 10 12 1016.0 1015.5 0.0
20/12:30am 23.7 24.0 20.8 84 1.9 NNE 20 26 11 14 1016.2 1015.7 0.0
20/12:00am 23.8 24.4 21.1 85 1.8 NNE 19 24 10 13 1016.5 1016.0 0.0
 
Date/Time
EST
Temp
°C
App
Temp
°C
Dew
Point
°C
Rel
Hum
%
Delta-T
°C
Wind Press
QNH
hPa
Press
MSL
hPa
Rain since
9am
mm
Dir  Spd
km/h
Gust
km/h
Spd
kts
Gust
kts
19/11:30pm 23.8 24.8 21.1 85 1.8 NNE 17 20 9 11 1016.8 1016.3 0.0
19/11:00pm 24.0 24.6 21.3 85 1.8 NNE 20 24 11 13 1017.0 1016.5 0.0
19/10:30pm 24.0 24.8 21.3 85 1.8 NNE 19 24 10 13 1017.3 1016.8 0.0
19/10:00pm 24.1 24.8 21.6 86 1.7 NNE 20 26 11 14 1017.1 1016.6 0.0
19/09:30pm 24.2 25.0 21.7 86 1.7 NNE 20 26 11 14 1017.0 1016.5 0.0
19/09:00pm 24.3 25.2 21.6 85 1.8 NNE 19 24 10 13 1016.6 1016.1 0.0
19/08:30pm 24.5 24.8 21.6 84 1.9 NNE 22 32 12 17 1016.2 1015.7 0.0
19/08:00pm 24.5 24.7 21.4 83 2.1 NNE 22 30 12 16 1015.9 1015.4 0.0
19/07:30pm 24.6 25.0 21.7 84 1.9 NNE 22 30 12 16 1015.7 1015.2 0.0
19/07:00pm 24.7 25.5 21.8 84 1.9 N 20 30 11 16 1015.5 1015.0 0.0
19/06:30pm 25.0 25.6 21.3 80 2.5 NNE 20 28 11 15 1015.2 1014.6 0.0
19/06:00pm 25.3 25.3 21.0 77 2.8 NNE 22 32 12 17 1014.8 1014.2 0.0
19/05:30pm 25.7 26.3 21.4 77 2.9 NNE 20 26 11 14 1014.9 1014.3 0.0
19/05:00pm 25.7 25.9 21.4 77 2.9 NNE 22 30 12 16 1014.5 1013.9 0.0
19/04:30pm 26.0 26.2 21.4 76 3.1 NNE 22 30 12 16 1014.5 1013.9 0.0
19/04:00pm 26.1 26.6 21.1 74 3.3 NNE 20 30 11 16 1014.9 1014.3 0.0
19/03:30pm 27.0 26.3 21.1 70 3.9 NNE 26 32 14 17 1015.1 1014.5 0.0
19/03:00pm 27.6 27.5 20.7 66 4.6 NNE 22 30 12 16 1015.3 1014.7 0.0
19/02:30pm 28.2 28.0 20.5 63 5.1 NNE 22 28 12 15 1015.5 1015.0 0.0
19/02:00pm 28.8 29.8 20.3 60 5.6 NNE 15 22 8 12 1015.8 1015.3 0.0
19/01:30pm 29.5 31.0 21.2 61 5.6 N 15 20 8 11 1016.3 1015.8 0.0
19/01:00pm 29.3 31.2 21.3 62 5.4 NNE 13 19 7 10 1016.8 1016.3 0.0
19/12:30pm 27.8 29.1 20.9 66 4.6 N 15 20 8 11 1017.3 1016.8 0.0
19/12:00pm 27.2 28.1 20.0 64 4.7 N 15 20 8 11 1017.5 1017.0 0.0
19/11:30am 28.8 30.8 21.6 65 4.8 N 13 19 7 10 1017.8 1017.3 0.0
19/11:00am 28.1 29.6 20.6 63 5.0 N 13 19 7 10 1018.1 1017.6 0.0
19/10:30am 27.8 29.5 20.9 66 4.6 N 13 15 7 8 1018.3 1017.8 0.0
19/10:00am 26.9 28.7 21.2 71 3.8 NNE 13 17 7 9 1018.4 1017.9 0.0
19/09:30am 27.0 28.9 20.6 68 4.2 NNE 11 17 6 9 1018.5 1018.0 0.0
19/09:00am 26.2 27.5 20.1 69 4.0 NNE 13 17 7 9 1018.6 1018.1 0.0
19/08:30am 26.9 29.1 20.5 68 4.2 NNE 9 15 5 8 1018.4 1017.9 0.0

Latest Capital City Observations: Canberra | Sydney | Melbourne | Brisbane | Adelaide | Perth | Hobart | Darwin

Other Formats:

Comma delimited format used in spreadsheet applications
http://www.bom.gov.au/fwo/IDQ60901/IDQ60901.94594.axf

JavaScript Object Notation format (JSON) in row-major order
http://www.bom.gov.au/fwo/IDQ60901/IDQ60901.94594.json